Aviation Digital Data Service (ADDS)

Output produced by METARs form (0625 UTC 19 February 2019)
found at http://www.aviationweather.gov/metar/data/
 
METAR text: NCRG 190600Z AUTO 24003KT 190V270 9999 SCT020/// SCT029/// 27/24 Q1006
Conditions at: NCRG (RAROTONGA COOK I, WS) observed 0600 UTC 19 February 2019
Temperature: 27.0°C (81°F)
Dewpoint: 24.0°C (75°F) [RH = 84%]
Pressure (altimeter): 29.70 inches Hg (1006.0 mb)
Winds: from the WSW (240 degrees) at 3 MPH (3 knots; 1.5 m/s)
Visibility: 6 or more miles (10+ km)
Ceiling: at least 12,000 feet AGL
Clouds: scattered clouds at 2000 feet AGL
scattered clouds at 2900 feet AGL
Weather: no significant weather observed at this time

METAR text: NCRG 190530Z AUTO 27006KT 9999 SCT019/// SCT100/// 27/24 Q1006
Conditions at: NCRG (RAROTONGA COOK I, WS) observed 0530 UTC 19 February 2019
Temperature: 27.0°C (81°F)
Dewpoint: 24.0°C (75°F) [RH = 84%]
Pressure (altimeter): 29.70 inches Hg (1006.0 mb)
Winds: from the W (270 degrees) at 7 MPH (6 knots; 3.1 m/s)
Visibility: 6 or more miles (10+ km)
Ceiling: at least 12,000 feet AGL
Clouds: scattered clouds at 1900 feet AGL
scattered clouds at 10000 feet AGL
Weather: no significant weather observed at this time

METAR text: NCRG 190500Z AUTO 31006KT 9999 FEW055/// 27/25 Q1005
Conditions at: NCRG (RAROTONGA COOK I, WS) observed 0500 UTC 19 February 2019
Temperature: 27.0°C (81°F)
Dewpoint: 25.0°C (77°F) [RH = 89%]
Pressure (altimeter): 29.68 inches Hg (1005.0 mb)
Winds: from the NW (310 degrees) at 7 MPH (6 knots; 3.1 m/s)
Visibility: 6 or more miles (10+ km)
Ceiling: at least 12,000 feet AGL
Clouds: few clouds at 5500 feet AGL
Weather: no significant weather observed at this time

METAR text: NCRG 190430Z AUTO 31008KT 9999 FEW050/// 27/25 Q1005
Conditions at: NCRG (RAROTONGA COOK I, WS) observed 0430 UTC 19 February 2019
Temperature: 27.0°C (81°F)
Dewpoint: 25.0°C (77°F) [RH = 89%]
Pressure (altimeter): 29.68 inches Hg (1005.0 mb)
Winds: from the NW (310 degrees) at 9 MPH (8 knots; 4.1 m/s)
Visibility: 6 or more miles (10+ km)
Ceiling: at least 12,000 feet AGL
Clouds: few clouds at 5000 feet AGL
Weather: no significant weather observed at this time

METAR text: NCRG 190400Z AUTO 31010KT 9999 BKN049/// 28/25 Q1005
Conditions at: NCRG (RAROTONGA COOK I, WS) observed 0400 UTC 19 February 2019
Temperature: 28.0°C (82°F)
Dewpoint: 25.0°C (77°F) [RH = 84%]
Pressure (altimeter): 29.68 inches Hg (1005.0 mb)
Winds: from the NW (310 degrees) at 12 MPH (10 knots; 5.1 m/s)
Visibility: 6 or more miles (10+ km)
Ceiling: 4900 feet AGL
Clouds: broken clouds at 4900 feet AGL
Weather: no significant weather observed at this time

METAR text: NCRG 190330Z AUTO 30011KT 9999 FEW028/// OVC049/// 27/25 Q1005
Conditions at: NCRG (RAROTONGA COOK I, WS) observed 0330 UTC 19 February 2019
Temperature: 27.0°C (81°F)
Dewpoint: 25.0°C (77°F) [RH = 89%]
Pressure (altimeter): 29.68 inches Hg (1005.0 mb)
Winds: from the WNW (300 degrees) at 13 MPH (11 knots; 5.7 m/s)
Visibility: 6 or more miles (10+ km)
Ceiling: 4900 feet AGL
Clouds: few clouds at 2800 feet AGL
overcast cloud deck at 4900 feet AGL
Weather: no significant weather observed at this time

METAR text: NCRG 190300Z AUTO 30012KT 9999 FEW014/// BKN028/// OVC055/// 28/24 Q1005
Conditions at: NCRG (RAROTONGA COOK I, WS) observed 0300 UTC 19 February 2019
Temperature: 28.0°C (82°F)
Dewpoint: 24.0°C (75°F) [RH = 79%]
Pressure (altimeter): 29.68 inches Hg (1005.0 mb)
Winds: from the WNW (300 degrees) at 14 MPH (12 knots; 6.2 m/s)
Visibility: 6 or more miles (10+ km)
Ceiling: 2800 feet AGL
Clouds: few clouds at 1400 feet AGL
broken clouds at 2800 feet AGL
overcast cloud deck at 5500 feet AGL
Weather: no significant weather observed at this time

METAR text: NCRG 190230Z AUTO 26009KT 9999 FEW018/// BKN055/// 29/24 Q1005
Conditions at: NCRG (RAROTONGA COOK I, WS) observed 0230 UTC 19 February 2019
Temperature: 29.0°C (84°F)
Dewpoint: 24.0°C (75°F) [RH = 74%]
Pressure (altimeter): 29.68 inches Hg (1005.0 mb)
Winds: from the W (260 degrees) at 10 MPH (9 knots; 4.6 m/s)
Visibility: 6 or more miles (10+ km)
Ceiling: 5500 feet AGL
Clouds: few clouds at 1800 feet AGL
broken clouds at 5500 feet AGL
Weather: no significant weather observed at this time

METAR text: NCRG 190200Z AUTO 27009KT 9999 SCT017/// 29/25 Q1005
Conditions at: NCRG (RAROTONGA COOK I, WS) observed 0200 UTC 19 February 2019
Temperature: 29.0°C (84°F)
Dewpoint: 25.0°C (77°F) [RH = 79%]
Pressure (altimeter): 29.68 inches Hg (1005.0 mb)
Winds: from the W (270 degrees) at 10 MPH (9 knots; 4.6 m/s)
Visibility: 6 or more miles (10+ km)
Ceiling: at least 12,000 feet AGL
Clouds: scattered clouds at 1700 feet AGL
Weather: no significant weather observed at this time

METAR text: NCRG 190130Z AUTO 26008KT 9999 SCT019/// SCT026/// BKN036/// 29/25 Q1005
Conditions at: NCRG (RAROTONGA COOK I, WS) observed 0130 UTC 19 February 2019
Temperature: 29.0°C (84°F)
Dewpoint: 25.0°C (77°F) [RH = 79%]
Pressure (altimeter): 29.68 inches Hg (1005.0 mb)
Winds: from the W (260 degrees) at 9 MPH (8 knots; 4.1 m/s)
Visibility: 6 or more miles (10+ km)
Ceiling: 3600 feet AGL
Clouds: scattered clouds at 1900 feet AGL
scattered clouds at 2600 feet AGL
broken clouds at 3600 feet AGL
Weather: no significant weather observed at this time

METAR text: NCRG 190100Z AUTO 27009KT 9999 FEW018/// 29/24 Q1005
Conditions at: NCRG (RAROTONGA COOK I, WS) observed 0100 UTC 19 February 2019
Temperature: 29.0°C (84°F)
Dewpoint: 24.0°C (75°F) [RH = 74%]
Pressure (altimeter): 29.68 inches Hg (1005.0 mb)
Winds: from the W (270 degrees) at 10 MPH (9 knots; 4.6 m/s)
Visibility: 6 or more miles (10+ km)
Ceiling: at least 12,000 feet AGL
Clouds: few clouds at 1800 feet AGL
Weather: no significant weather observed at this time

METAR text: NCRG 190030Z AUTO 26009KT 9999 SCT019/// 29/25 Q1005
Conditions at: NCRG (RAROTONGA COOK I, WS) observed 0030 UTC 19 February 2019
Temperature: 29.0°C (84°F)
Dewpoint: 25.0°C (77°F) [RH = 79%]
Pressure (altimeter): 29.68 inches Hg (1005.0 mb)
Winds: from the W (260 degrees) at 10 MPH (9 knots; 4.6 m/s)
Visibility: 6 or more miles (10+ km)
Ceiling: at least 12,000 feet AGL
Clouds: scattered clouds at 1900 feet AGL
Weather: no significant weather observed at this time

METAR text: NCRG 190000Z AUTO 26010KT 9999 SCT017/// SCT031/// BKN049/// 29/25 Q1005
Conditions at: NCRG (RAROTONGA COOK I, WS) observed 0000 UTC 19 February 2019
Temperature: 29.0°C (84°F)
Dewpoint: 25.0°C (77°F) [RH = 79%]
Pressure (altimeter): 29.68 inches Hg (1005.0 mb)
Winds: from the W (260 degrees) at 12 MPH (10 knots; 5.1 m/s)
Visibility: 6 or more miles (10+ km)
Ceiling: 4900 feet AGL
Clouds: scattered clouds at 1700 feet AGL
scattered clouds at 3100 feet AGL
broken clouds at 4900 feet AGL
Weather: no significant weather observed at this time

METAR text: NCRG 182330Z AUTO 27010KT 9999 SCT018/// SCT030/// 29/24 Q1005
Conditions at: NCRG (RAROTONGA COOK I, WS) observed 2330 UTC 18 February 2019
Temperature: 29.0°C (84°F)
Dewpoint: 24.0°C (75°F) [RH = 74%]
Pressure (altimeter): 29.68 inches Hg (1005.0 mb)
Winds: from the W (270 degrees) at 12 MPH (10 knots; 5.1 m/s)
Visibility: 6 or more miles (10+ km)
Ceiling: at least 12,000 feet AGL
Clouds: scattered clouds at 1800 feet AGL
scattered clouds at 3000 feet AGL
Weather: no significant weather observed at this time

METAR text: NCRG 182300Z AUTO 26010KT 9999 FEW019/// 29/24 Q1006
Conditions at: NCRG (RAROTONGA COOK I, WS) observed 2300 UTC 18 February 2019
Temperature: 29.0°C (84°F)
Dewpoint: 24.0°C (75°F) [RH = 74%]
Pressure (altimeter): 29.70 inches Hg (1006.0 mb)
Winds: from the W (260 degrees) at 12 MPH (10 knots; 5.1 m/s)
Visibility: 6 or more miles (10+ km)
Ceiling: at least 12,000 feet AGL
Clouds: few clouds at 1900 feet AGL
Weather: no significant weather observed at this time

METAR text: NCRG 182230Z AUTO 27011KT 9999 FEW019/// 29/24 Q1006
Conditions at: NCRG (RAROTONGA COOK I, WS) observed 2230 UTC 18 February 2019
Temperature: 29.0°C (84°F)
Dewpoint: 24.0°C (75°F) [RH = 74%]
Pressure (altimeter): 29.70 inches Hg (1006.0 mb)
Winds: from the W (270 degrees) at 13 MPH (11 knots; 5.7 m/s)
Visibility: 6 or more miles (10+ km)
Ceiling: at least 12,000 feet AGL
Clouds: few clouds at 1900 feet AGL
Weather: no significant weather observed at this time

METAR text: NCRG 182200Z AUTO 27010KT 9999 FEW019/// SCT025/// BKN036/// 29/24 Q1006
Conditions at: NCRG (RAROTONGA COOK I, WS) observed 2200 UTC 18 February 2019
Temperature: 29.0°C (84°F)
Dewpoint: 24.0°C (75°F) [RH = 74%]
Pressure (altimeter): 29.70 inches Hg (1006.0 mb)
Winds: from the W (270 degrees) at 12 MPH (10 knots; 5.1 m/s)
Visibility: 6 or more miles (10+ km)
Ceiling: 3600 feet AGL
Clouds: few clouds at 1900 feet AGL
scattered clouds at 2500 feet AGL
broken clouds at 3600 feet AGL
Weather: no significant weather observed at this time

METAR text: NCRG 182130Z AUTO 26009KT 9999 SCT024/// BKN035/// 29/24 Q1006
Conditions at: NCRG (RAROTONGA COOK I, WS) observed 2130 UTC 18 February 2019
Temperature: 29.0°C (84°F)
Dewpoint: 24.0°C (75°F) [RH = 74%]
Pressure (altimeter): 29.70 inches Hg (1006.0 mb)
Winds: from the W (260 degrees) at 10 MPH (9 knots; 4.6 m/s)
Visibility: 6 or more miles (10+ km)
Ceiling: 3500 feet AGL
Clouds: scattered clouds at 2400 feet AGL
broken clouds at 3500 feet AGL
Weather: no significant weather observed at this time

METAR text: NCRG 182100Z AUTO 26008KT 9999 SCT033/// 29/24 Q1006
Conditions at: NCRG (RAROTONGA COOK I, WS) observed 2100 UTC 18 February 2019
Temperature: 29.0°C (84°F)
Dewpoint: 24.0°C (75°F) [RH = 74%]
Pressure (altimeter): 29.70 inches Hg (1006.0 mb)
Winds: from the W (260 degrees) at 9 MPH (8 knots; 4.1 m/s)
Visibility: 6 or more miles (10+ km)
Ceiling: at least 12,000 feet AGL
Clouds: scattered clouds at 3300 feet AGL
Weather: no significant weather observed at this time

METAR text: NCRG 182030Z AUTO 26009KT 9999 FEW017/// SCT036/// 28/24 Q1006
Conditions at: NCRG (RAROTONGA COOK I, WS) observed 2030 UTC 18 February 2019
Temperature: 28.0°C (82°F)
Dewpoint: 24.0°C (75°F) [RH = 79%]
Pressure (altimeter): 29.70 inches Hg (1006.0 mb)
Winds: from the W (260 degrees) at 10 MPH (9 knots; 4.6 m/s)
Visibility: 6 or more miles (10+ km)
Ceiling: at least 12,000 feet AGL
Clouds: few clouds at 1700 feet AGL
scattered clouds at 3600 feet AGL
Weather: no significant weather observed at this time

METAR text: NCRG 182000Z AUTO 27009KT 9999 FEW033/// SCT041/// 28/24 Q1007
Conditions at: NCRG (RAROTONGA COOK I, WS) observed 2000 UTC 18 February 2019
Temperature: 28.0°C (82°F)
Dewpoint: 24.0°C (75°F) [RH = 79%]
Pressure (altimeter): 29.73 inches Hg (1007.0 mb)
Winds: from the W (270 degrees) at 10 MPH (9 knots; 4.6 m/s)
Visibility: 6 or more miles (10+ km)
Ceiling: at least 12,000 feet AGL
Clouds: few clouds at 3300 feet AGL
scattered clouds at 4100 feet AGL
Weather: no significant weather observed at this time

METAR text: NCRG 181930Z AUTO 28009KT 9999 FEW025/// BKN033/// 28/24 Q1007
Conditions at: NCRG (RAROTONGA COOK I, WS) observed 1930 UTC 18 February 2019
Temperature: 28.0°C (82°F)
Dewpoint: 24.0°C (75°F) [RH = 79%]
Pressure (altimeter): 29.73 inches Hg (1007.0 mb)
Winds: from the W (280 degrees) at 10 MPH (9 knots; 4.6 m/s)
Visibility: 6 or more miles (10+ km)
Ceiling: 3300 feet AGL
Clouds: few clouds at 2500 feet AGL
broken clouds at 3300 feet AGL
Weather: no significant weather observed at this time

METAR text: NCRG 181900Z AUTO 27009KT 9999 SCT032/// 28/24 Q1006
Conditions at: NCRG (RAROTONGA COOK I, WS) observed 1900 UTC 18 February 2019
Temperature: 28.0°C (82°F)
Dewpoint: 24.0°C (75°F) [RH = 79%]
Pressure (altimeter): 29.70 inches Hg (1006.0 mb)
Winds: from the W (270 degrees) at 10 MPH (9 knots; 4.6 m/s)
Visibility: 6 or more miles (10+ km)
Ceiling: at least 12,000 feet AGL
Clouds: scattered clouds at 3200 feet AGL
Weather: no significant weather observed at this time

METAR text: NCRG 181830Z AUTO 27012KT 9999 FEW020/// BKN029/// 27/25 Q1006
Conditions at: NCRG (RAROTONGA COOK I, WS) observed 1830 UTC 18 February 2019
Temperature: 27.0°C (81°F)
Dewpoint: 25.0°C (77°F) [RH = 89%]
Pressure (altimeter): 29.70 inches Hg (1006.0 mb)
Winds: from the W (270 degrees) at 14 MPH (12 knots; 6.2 m/s)
Visibility: 6 or more miles (10+ km)
Ceiling: 2900 feet AGL
Clouds: few clouds at 2000 feet AGL
broken clouds at 2900 feet AGL
Weather: no significant weather observed at this time

METAR text: NCRG 181800Z AUTO 28010KT 9999 FEW017/// SCT032/// 27/24 Q1006
Conditions at: NCRG (RAROTONGA COOK I, WS) observed 1800 UTC 18 February 2019
Temperature: 27.0°C (81°F)
Dewpoint: 24.0°C (75°F) [RH = 84%]
Pressure (altimeter): 29.70 inches Hg (1006.0 mb)
Winds: from the W (280 degrees) at 12 MPH (10 knots; 5.1 m/s)
Visibility: 6 or more miles (10+ km)
Ceiling: at least 12,000 feet AGL
Clouds: few clouds at 1700 feet AGL
scattered clouds at 3200 feet AGL
Weather: no significant weather observed at this time

METAR text: NCRG 181730Z AUTO 27008KT 9999 SCT018/// SCT040/// 27/25 Q1006
Conditions at: NCRG (RAROTONGA COOK I, WS) observed 1730 UTC 18 February 2019
Temperature: 27.0°C (81°F)
Dewpoint: 25.0°C (77°F) [RH = 89%]
Pressure (altimeter): 29.70 inches Hg (1006.0 mb)
Winds: from the W (270 degrees) at 9 MPH (8 knots; 4.1 m/s)
Visibility: 6 or more miles (10+ km)
Ceiling: at least 12,000 feet AGL
Clouds: scattered clouds at 1800 feet AGL
scattered clouds at 4000 feet AGL
Weather: no significant weather observed at this time

METAR text: NCRG 181700Z AUTO 27008KT 9999 BKN022/// 27/24 Q1006
Conditions at: NCRG (RAROTONGA COOK I, WS) observed 1700 UTC 18 February 2019
Temperature: 27.0°C (81°F)
Dewpoint: 24.0°C (75°F) [RH = 84%]
Pressure (altimeter): 29.70 inches Hg (1006.0 mb)
Winds: from the W (270 degrees) at 9 MPH (8 knots; 4.1 m/s)
Visibility: 6 or more miles (10+ km)
Ceiling: 2200 feet AGL
Clouds: broken clouds at 2200 feet AGL
Weather: no significant weather observed at this time

METAR text: NCRG 181630Z AUTO 25005KT 190V310 9999 BKN019/// BKN025/// BKN080/// 27/24 Q1006 RERA
Conditions at: NCRG (RAROTONGA COOK I, WS) observed 1630 UTC 18 February 2019
Temperature: 27.0°C (81°F)
Dewpoint: 24.0°C (75°F) [RH = 84%]
Pressure (altimeter): 29.70 inches Hg (1006.0 mb)
Winds: from the WSW (250 degrees) at 6 MPH (5 knots; 2.6 m/s)
Visibility: 6 or more miles (10+ km)
Ceiling: 1900 feet AGL
Clouds: broken clouds at 1900 feet AGL
broken clouds at 2500 feet AGL
broken clouds at 8000 feet AGL
Weather: no significant weather observed at this time

METAR text: NCRG 181600Z AUTO 27007KT 9999 FEW028/// SCT065/// 27/24 Q1006
Conditions at: NCRG (RAROTONGA COOK I, WS) observed 1600 UTC 18 February 2019
Temperature: 27.0°C (81°F)
Dewpoint: 24.0°C (75°F) [RH = 84%]
Pressure (altimeter): 29.70 inches Hg (1006.0 mb)
Winds: from the W (270 degrees) at 8 MPH (7 knots; 3.6 m/s)
Visibility: 6 or more miles (10+ km)
Ceiling: at least 12,000 feet AGL
Clouds: few clouds at 2800 feet AGL
scattered clouds at 6500 feet AGL
Weather: no significant weather observed at this time

METAR text: NCRG 181530Z AUTO 28010KT 9999 FEW021/// BKN065/// BKN085/// 27/23 Q1006
Conditions at: NCRG (RAROTONGA COOK I, WS) observed 1530 UTC 18 February 2019
Temperature: 27.0°C (81°F)
Dewpoint: 23.0°C (73°F) [RH = 79%]
Pressure (altimeter): 29.70 inches Hg (1006.0 mb)
Winds: from the W (280 degrees) at 12 MPH (10 knots; 5.1 m/s)
Visibility: 6 or more miles (10+ km)
Ceiling: 6500 feet AGL
Clouds: few clouds at 2100 feet AGL
broken clouds at 6500 feet AGL
broken clouds at 8500 feet AGL
Weather: no significant weather observed at this time

METAR text: NCRG 181500Z AUTO 27008KT 9999 FEW020/// SCT080/// 27/24 Q1005
Conditions at: NCRG (RAROTONGA COOK I, WS) observed 1500 UTC 18 February 2019
Temperature: 27.0°C (81°F)
Dewpoint: 24.0°C (75°F) [RH = 84%]
Pressure (altimeter): 29.68 inches Hg (1005.0 mb)
Winds: from the W (270 degrees) at 9 MPH (8 knots; 4.1 m/s)
Visibility: 6 or more miles (10+ km)
Ceiling: at least 12,000 feet AGL
Clouds: few clouds at 2000 feet AGL
scattered clouds at 8000 feet AGL
Weather: no significant weather observed at this time

METAR text: NCRG 181430Z AUTO 27009KT 9999 FEW020/// 27/24 Q1005
Conditions at: NCRG (RAROTONGA COOK I, WS) observed 1430 UTC 18 February 2019
Temperature: 27.0°C (81°F)
Dewpoint: 24.0°C (75°F) [RH = 84%]
Pressure (altimeter): 29.68 inches Hg (1005.0 mb)
Winds: from the W (270 degrees) at 10 MPH (9 knots; 4.6 m/s)
Visibility: 6 or more miles (10+ km)
Ceiling: at least 12,000 feet AGL
Clouds: few clouds at 2000 feet AGL
Weather: no significant weather observed at this time

METAR text: NCRG 181400Z AUTO 23003KT 170V300 9999 FEW020/// SCT045/// 25/24 Q1005
Conditions at: NCRG (RAROTONGA COOK I, WS) observed 1400 UTC 18 February 2019
Temperature: 25.0°C (77°F)
Dewpoint: 24.0°C (75°F) [RH = 94%]
Pressure (altimeter): 29.68 inches Hg (1005.0 mb)
Winds: from the SW (230 degrees) at 3 MPH (3 knots; 1.5 m/s)
Visibility: 6 or more miles (10+ km)
Ceiling: at least 12,000 feet AGL
Clouds: few clouds at 2000 feet AGL
scattered clouds at 4500 feet AGL
Weather: no significant weather observed at this time

METAR text: NCRG 181330Z AUTO 19002KT 9999 FEW019/// SCT031/// 25/24 Q1005
Conditions at: NCRG (RAROTONGA COOK I, WS) observed 1330 UTC 18 February 2019
Temperature: 25.0°C (77°F)
Dewpoint: 24.0°C (75°F) [RH = 94%]
Pressure (altimeter): 29.68 inches Hg (1005.0 mb)
Winds: from the S (190 degrees) at 2 MPH (2 knots; 1.0 m/s)
Visibility: 6 or more miles (10+ km)
Ceiling: at least 12,000 feet AGL
Clouds: few clouds at 1900 feet AGL
scattered clouds at 3100 feet AGL
Weather: no significant weather observed at this time

METAR text: NCRG 181300Z AUTO 21002KT 9999 BKN021/// BKN028/// 25/24 Q1005
Conditions at: NCRG (RAROTONGA COOK I, WS) observed 1300 UTC 18 February 2019
Temperature: 25.0°C (77°F)
Dewpoint: 24.0°C (75°F) [RH = 94%]
Pressure (altimeter): 29.68 inches Hg (1005.0 mb)
Winds: from the SSW (210 degrees) at 2 MPH (2 knots; 1.0 m/s)
Visibility: 6 or more miles (10+ km)
Ceiling: 2100 feet AGL
Clouds: broken clouds at 2100 feet AGL
broken clouds at 2800 feet AGL
Weather: no significant weather observed at this time

METAR text: NCRG 181230Z AUTO 18003KT 140V210 9999 FEW035/// 25/24 Q1006
Conditions at: NCRG (RAROTONGA COOK I, WS) observed 1230 UTC 18 February 2019
Temperature: 25.0°C (77°F)
Dewpoint: 24.0°C (75°F) [RH = 94%]
Pressure (altimeter): 29.70 inches Hg (1006.0 mb)
Winds: from the S (180 degrees) at 3 MPH (3 knots; 1.5 m/s)
Visibility: 6 or more miles (10+ km)
Ceiling: at least 12,000 feet AGL
Clouds: few clouds at 3500 feet AGL
Weather: no significant weather observed at this time

METAR text: NCRG 181200Z AUTO 15001KT 9999 SCT020/// SCT043/// 25/24 Q1006
Conditions at: NCRG (RAROTONGA COOK I, WS) observed 1200 UTC 18 February 2019
Temperature: 25.0°C (77°F)
Dewpoint: 24.0°C (75°F) [RH = 94%]
Pressure (altimeter): 29.70 inches Hg (1006.0 mb)
Winds: from the SSE (150 degrees) at 1 MPH (1 knots; 0.5 m/s)
Visibility: 6 or more miles (10+ km)
Ceiling: at least 12,000 feet AGL
Clouds: scattered clouds at 2000 feet AGL
scattered clouds at 4300 feet AGL
Weather: no significant weather observed at this time

METAR text: NCRG 181130Z AUTO 19002KT 9999 FEW026/// 25/24 Q1006
Conditions at: NCRG (RAROTONGA COOK I, WS) observed 1130 UTC 18 February 2019
Temperature: 25.0°C (77°F)
Dewpoint: 24.0°C (75°F) [RH = 94%]
Pressure (altimeter): 29.70 inches Hg (1006.0 mb)
Winds: from the S (190 degrees) at 2 MPH (2 knots; 1.0 m/s)
Visibility: 6 or more miles (10+ km)
Ceiling: at least 12,000 feet AGL
Clouds: few clouds at 2600 feet AGL
Weather: no significant weather observed at this time

METAR text: NCRG 181100Z AUTO 20002KT 9999 BKN025/// 26/24 Q1007
Conditions at: NCRG (RAROTONGA COOK I, WS) observed 1100 UTC 18 February 2019
Temperature: 26.0°C (79°F)
Dewpoint: 24.0°C (75°F) [RH = 89%]
Pressure (altimeter): 29.73 inches Hg (1007.0 mb)
Winds: from the SSW (200 degrees) at 2 MPH (2 knots; 1.0 m/s)
Visibility: 6 or more miles (10+ km)
Ceiling: 2500 feet AGL
Clouds: broken clouds at 2500 feet AGL
Weather: no significant weather observed at this time

METAR text: NCRG 181030Z AUTO 19003KT 9999 SCT026/// BKN032/// 25/24 Q1007
Conditions at: NCRG (RAROTONGA COOK I, WS) observed 1030 UTC 18 February 2019
Temperature: 25.0°C (77°F)
Dewpoint: 24.0°C (75°F) [RH = 94%]
Pressure (altimeter): 29.73 inches Hg (1007.0 mb)
Winds: from the S (190 degrees) at 3 MPH (3 knots; 1.5 m/s)
Visibility: 6 or more miles (10+ km)
Ceiling: 3200 feet AGL
Clouds: scattered clouds at 2600 feet AGL
broken clouds at 3200 feet AGL
Weather: no significant weather observed at this time

METAR text: NCRG 181000Z AUTO 18003KT 9999 FEW030/// SCT037/// 26/24 Q1007
Conditions at: NCRG (RAROTONGA COOK I, WS) observed 1000 UTC 18 February 2019
Temperature: 26.0°C (79°F)
Dewpoint: 24.0°C (75°F) [RH = 89%]
Pressure (altimeter): 29.73 inches Hg (1007.0 mb)
Winds: from the S (180 degrees) at 3 MPH (3 knots; 1.5 m/s)
Visibility: 6 or more miles (10+ km)
Ceiling: at least 12,000 feet AGL
Clouds: few clouds at 3000 feet AGL
scattered clouds at 3700 feet AGL
Weather: no significant weather observed at this time

METAR text: NCRG 180930Z AUTO 21003KT 180V250 9999 FEW090/// 26/24 Q1007
Conditions at: NCRG (RAROTONGA COOK I, WS) observed 0930 UTC 18 February 2019
Temperature: 26.0°C (79°F)
Dewpoint: 24.0°C (75°F) [RH = 89%]
Pressure (altimeter): 29.73 inches Hg (1007.0 mb)
Winds: from the SSW (210 degrees) at 3 MPH (3 knots; 1.5 m/s)
Visibility: 6 or more miles (10+ km)
Ceiling: at least 12,000 feet AGL
Clouds: few clouds at 9000 feet AGL
Weather: no significant weather observed at this time

METAR text: NCRG 180900Z AUTO 21002KT 9999 SCT023/// 26/24 Q1007
Conditions at: NCRG (RAROTONGA COOK I, WS) observed 0900 UTC 18 February 2019
Temperature: 26.0°C (79°F)
Dewpoint: 24.0°C (75°F) [RH = 89%]
Pressure (altimeter): 29.73 inches Hg (1007.0 mb)
Winds: from the SSW (210 degrees) at 2 MPH (2 knots; 1.0 m/s)
Visibility: 6 or more miles (10+ km)
Ceiling: at least 12,000 feet AGL
Clouds: scattered clouds at 2300 feet AGL
Weather: no significant weather observed at this time

METAR text: NCRG 180830Z AUTO 13001KT 9999 BKN025/// BKN034/// 25/24 Q1007
Conditions at: NCRG (RAROTONGA COOK I, WS) observed 0830 UTC 18 February 2019
Temperature: 25.0°C (77°F)
Dewpoint: 24.0°C (75°F) [RH = 94%]
Pressure (altimeter): 29.73 inches Hg (1007.0 mb)
Winds: from the SE (130 degrees) at 1 MPH (1 knots; 0.5 m/s)
Visibility: 6 or more miles (10+ km)
Ceiling: 2500 feet AGL
Clouds: broken clouds at 2500 feet AGL
broken clouds at 3400 feet AGL
Weather: no significant weather observed at this time

METAR text: NCRG 180800Z AUTO 18001KT 9999 NCD 25/24 Q1007
Conditions at: NCRG (RAROTONGA COOK I, WS) observed 0800 UTC 18 February 2019
Temperature: 25.0°C (77°F)
Dewpoint: 24.0°C (75°F) [RH = 94%]
Pressure (altimeter): 29.73 inches Hg (1007.0 mb)
Winds: from the S (180 degrees) at 1 MPH (1 knots; 0.5 m/s)
Visibility: 6 or more miles (10+ km)
Ceiling: at least 12,000 feet AGL
Clouds: sky clear below 12,000 feet AGL
Weather: no significant weather observed at this time

METAR text: NCRG 180730Z AUTO 21001KT 9999 NCD 26/24 Q1007
Conditions at: NCRG (RAROTONGA COOK I, WS) observed 0730 UTC 18 February 2019
Temperature: 26.0°C (79°F)
Dewpoint: 24.0°C (75°F) [RH = 89%]
Pressure (altimeter): 29.73 inches Hg (1007.0 mb)
Winds: from the SSW (210 degrees) at 1 MPH (1 knots; 0.5 m/s)
Visibility: 6 or more miles (10+ km)
Ceiling: at least 12,000 feet AGL
Clouds: sky clear below 12,000 feet AGL
Weather: no significant weather observed at this time

METAR text: NCRG 180700Z AUTO 29005KT 9999 FEW022/// 27/24 Q1007
Conditions at: NCRG (RAROTONGA COOK I, WS) observed 0700 UTC 18 February 2019
Temperature: 27.0°C (81°F)
Dewpoint: 24.0°C (75°F) [RH = 84%]
Pressure (altimeter): 29.73 inches Hg (1007.0 mb)
Winds: from the WNW (290 degrees) at 6 MPH (5 knots; 2.6 m/s)
Visibility: 6 or more miles (10+ km)
Ceiling: at least 12,000 feet AGL
Clouds: few clouds at 2200 feet AGL
Weather: no significant weather observed at this time

METAR text: NCRG 180630Z AUTO 27007KT 230V290 9999 FEW023/// SCT029/// 27/24 Q1007
Conditions at: NCRG (RAROTONGA COOK I, WS) observed 0630 UTC 18 February 2019
Temperature: 27.0°C (81°F)
Dewpoint: 24.0°C (75°F) [RH = 84%]
Pressure (altimeter): 29.73 inches Hg (1007.0 mb)
Winds: from the W (270 degrees) at 8 MPH (7 knots; 3.6 m/s)
Visibility: 6 or more miles (10+ km)
Ceiling: at least 12,000 feet AGL
Clouds: few clouds at 2300 feet AGL
scattered clouds at 2900 feet AGL
Weather: no significant weather observed at this time

METAR text: NCRG 180600Z AUTO 20002KT 9999 FEW023/// SCT048/// 27/24 Q1007
Conditions at: NCRG (RAROTONGA COOK I, WS) observed 0600 UTC 18 February 2019
Temperature: 27.0°C (81°F)
Dewpoint: 24.0°C (75°F) [RH = 84%]
Pressure (altimeter): 29.73 inches Hg (1007.0 mb)
Winds: from the SSW (200 degrees) at 2 MPH (2 knots; 1.0 m/s)
Visibility: 6 or more miles (10+ km)
Ceiling: at least 12,000 feet AGL
Clouds: few clouds at 2300 feet AGL
scattered clouds at 4800 feet AGL
Weather: no significant weather observed at this time

METAR text: NCRG 180530Z AUTO 21002KT 9999 FEW025/// 28/23 Q1006
Conditions at: NCRG (RAROTONGA COOK I, WS) observed 0530 UTC 18 February 2019
Temperature: 28.0°C (82°F)
Dewpoint: 23.0°C (73°F) [RH = 74%]
Pressure (altimeter): 29.70 inches Hg (1006.0 mb)
Winds: from the SSW (210 degrees) at 2 MPH (2 knots; 1.0 m/s)
Visibility: 6 or more miles (10+ km)
Ceiling: at least 12,000 feet AGL
Clouds: few clouds at 2500 feet AGL
Weather: no significant weather observed at this time

METAR text: NCRG 180500Z AUTO 22004KT 170V260 9999 FEW023/// 28/23 Q1006
Conditions at: NCRG (RAROTONGA COOK I, WS) observed 0500 UTC 18 February 2019
Temperature: 28.0°C (82°F)
Dewpoint: 23.0°C (73°F) [RH = 74%]
Pressure (altimeter): 29.70 inches Hg (1006.0 mb)
Winds: from the SW (220 degrees) at 5 MPH (4 knots; 2.1 m/s)
Visibility: 6 or more miles (10+ km)
Ceiling: at least 12,000 feet AGL
Clouds: few clouds at 2300 feet AGL
Weather: no significant weather observed at this time

METAR text: NCRG 180430Z AUTO 23004KT 170V260 9999 NCD 29/23 Q1006
Conditions at: NCRG (RAROTONGA COOK I, WS) observed 0430 UTC 18 February 2019
Temperature: 29.0°C (84°F)
Dewpoint: 23.0°C (73°F) [RH = 70%]
Pressure (altimeter): 29.70 inches Hg (1006.0 mb)
Winds: from the SW (230 degrees) at 5 MPH (4 knots; 2.1 m/s)
Visibility: 6 or more miles (10+ km)
Ceiling: at least 12,000 feet AGL
Clouds: sky clear below 12,000 feet AGL
Weather: no significant weather observed at this time

METAR text: NCRG 180400Z AUTO 23005KT 9999 NCD 29/23 Q1006
Conditions at: NCRG (RAROTONGA COOK I, WS) observed 0400 UTC 18 February 2019
Temperature: 29.0°C (84°F)
Dewpoint: 23.0°C (73°F) [RH = 70%]
Pressure (altimeter): 29.70 inches Hg (1006.0 mb)
Winds: from the SW (230 degrees) at 6 MPH (5 knots; 2.6 m/s)
Visibility: 6 or more miles (10+ km)
Ceiling: at least 12,000 feet AGL
Clouds: sky clear below 12,000 feet AGL
Weather: no significant weather observed at this time

METAR text: NCRG 180330Z AUTO 23005KT 190V260 9999 FEW022/// 29/23 Q1005
Conditions at: NCRG (RAROTONGA COOK I, WS) observed 0330 UTC 18 February 2019
Temperature: 29.0°C (84°F)
Dewpoint: 23.0°C (73°F) [RH = 70%]
Pressure (altimeter): 29.68 inches Hg (1005.0 mb)
Winds: from the SW (230 degrees) at 6 MPH (5 knots; 2.6 m/s)
Visibility: 6 or more miles (10+ km)
Ceiling: at least 12,000 feet AGL
Clouds: few clouds at 2200 feet AGL
Weather: no significant weather observed at this time

METAR text: NCRG 180300Z AUTO 24007KT 180V290 9999 SCT024/// BKN046/// 29/23 Q1005
Conditions at: NCRG (RAROTONGA COOK I, WS) observed 0300 UTC 18 February 2019
Temperature: 29.0°C (84°F)
Dewpoint: 23.0°C (73°F) [RH = 70%]
Pressure (altimeter): 29.68 inches Hg (1005.0 mb)
Winds: from the WSW (240 degrees) at 8 MPH (7 knots; 3.6 m/s)
Visibility: 6 or more miles (10+ km)
Ceiling: 4600 feet AGL
Clouds: scattered clouds at 2400 feet AGL
broken clouds at 4600 feet AGL
Weather: no significant weather observed at this time

METAR text: NCRG 180230Z AUTO 23007KT 160V260 9999 FEW024/// 29/23 Q1006
Conditions at: NCRG (RAROTONGA COOK I, WS) observed 0230 UTC 18 February 2019
Temperature: 29.0°C (84°F)
Dewpoint: 23.0°C (73°F) [RH = 70%]
Pressure (altimeter): 29.70 inches Hg (1006.0 mb)
Winds: from the SW (230 degrees) at 8 MPH (7 knots; 3.6 m/s)
Visibility: 6 or more miles (10+ km)
Ceiling: at least 12,000 feet AGL
Clouds: few clouds at 2400 feet AGL
Weather: no significant weather observed at this time

METAR text: NCRG 180200Z AUTO 24006KT 150V280 9999 NCD 29/24 Q1006
Conditions at: NCRG (RAROTONGA COOK I, WS) observed 0200 UTC 18 February 2019
Temperature: 29.0°C (84°F)
Dewpoint: 24.0°C (75°F) [RH = 74%]
Pressure (altimeter): 29.70 inches Hg (1006.0 mb)
Winds: from the WSW (240 degrees) at 7 MPH (6 knots; 3.1 m/s)
Visibility: 6 or more miles (10+ km)
Ceiling: at least 12,000 feet AGL
Clouds: sky clear below 12,000 feet AGL
Weather: no significant weather observed at this time

METAR text: NCRG 180130Z AUTO 23007KT 180V260 9999 NCD 29/23 Q1006
Conditions at: NCRG (RAROTONGA COOK I, WS) observed 0130 UTC 18 February 2019
Temperature: 29.0°C (84°F)
Dewpoint: 23.0°C (73°F) [RH = 70%]
Pressure (altimeter): 29.70 inches Hg (1006.0 mb)
Winds: from the SW (230 degrees) at 8 MPH (7 knots; 3.6 m/s)
Visibility: 6 or more miles (10+ km)
Ceiling: at least 12,000 feet AGL
Clouds: sky clear below 12,000 feet AGL
Weather: no significant weather observed at this time

METAR text: NCRG 180100Z AUTO 25007KT 210V280 9999 NCD 29/23 Q1006
Conditions at: NCRG (RAROTONGA COOK I, WS) observed 0100 UTC 18 February 2019
Temperature: 29.0°C (84°F)
Dewpoint: 23.0°C (73°F) [RH = 70%]
Pressure (altimeter): 29.70 inches Hg (1006.0 mb)
Winds: from the WSW (250 degrees) at 8 MPH (7 knots; 3.6 m/s)
Visibility: 6 or more miles (10+ km)
Ceiling: at least 12,000 feet AGL
Clouds: sky clear below 12,000 feet AGL
Weather: no significant weather observed at this time

METAR text: NCRG 180030Z AUTO 25008KT 210V290 9999 FEW021/// 29/23 Q1006
Conditions at: NCRG (RAROTONGA COOK I, WS) observed 0030 UTC 18 February 2019
Temperature: 29.0°C (84°F)
Dewpoint: 23.0°C (73°F) [RH = 70%]
Pressure (altimeter): 29.70 inches Hg (1006.0 mb)
Winds: from the WSW (250 degrees) at 9 MPH (8 knots; 4.1 m/s)
Visibility: 6 or more miles (10+ km)
Ceiling: at least 12,000 feet AGL
Clouds: few clouds at 2100 feet AGL
Weather: no significant weather observed at this time

METAR text: NCRG 180000Z AUTO 26008KT 9999 FEW024/// 29/24 Q1006
Conditions at: NCRG (RAROTONGA COOK I, WS) observed 0000 UTC 18 February 2019
Temperature: 29.0°C (84°F)
Dewpoint: 24.0°C (75°F) [RH = 74%]
Pressure (altimeter): 29.70 inches Hg (1006.0 mb)
Winds: from the W (260 degrees) at 9 MPH (8 knots; 4.1 m/s)
Visibility: 6 or more miles (10+ km)
Ceiling: at least 12,000 feet AGL
Clouds: few clouds at 2400 feet AGL
Weather: no significant weather observed at this time

METAR text: NCRG 172330Z AUTO 26008KT 9999 ///////// 29/22 Q1006
Conditions at: NCRG (RAROTONGA COOK I, WS) observed 2330 UTC 17 February 2019
Temperature: 29.0°C (84°F)
Dewpoint: 22.0°C (72°F) [RH = 66%]
Pressure (altimeter): 29.70 inches Hg (1006.0 mb)
Winds: from the W (260 degrees) at 9 MPH (8 knots; 4.1 m/s)
Visibility: 6 or more miles (10+ km)
Ceiling: unknown
Clouds: missing
Weather: no significant weather observed at this time

METAR text: NCRG 172300Z AUTO 25007KT 210V280 9999 NCD 29/23 Q1007
Conditions at: NCRG (RAROTONGA COOK I, WS) observed 2300 UTC 17 February 2019
Temperature: 29.0°C (84°F)
Dewpoint: 23.0°C (73°F) [RH = 70%]
Pressure (altimeter): 29.73 inches Hg (1007.0 mb)
Winds: from the WSW (250 degrees) at 8 MPH (7 knots; 3.6 m/s)
Visibility: 6 or more miles (10+ km)
Ceiling: at least 12,000 feet AGL
Clouds: sky clear below 12,000 feet AGL
Weather: no significant weather observed at this time

METAR text: NCRG 172230Z AUTO 26008KT 9999 NCD 29/24 Q1007
Conditions at: NCRG (RAROTONGA COOK I, WS) observed 2230 UTC 17 February 2019
Temperature: 29.0°C (84°F)
Dewpoint: 24.0°C (75°F) [RH = 74%]
Pressure (altimeter): 29.73 inches Hg (1007.0 mb)
Winds: from the W (260 degrees) at 9 MPH (8 knots; 4.1 m/s)
Visibility: 6 or more miles (10+ km)
Ceiling: at least 12,000 feet AGL
Clouds: sky clear below 12,000 feet AGL
Weather: no significant weather observed at this time

METAR text: NCRG 172200Z AUTO 27008KT 9999 NCD 29/24 Q1007
Conditions at: NCRG (RAROTONGA COOK I, WS) observed 2200 UTC 17 February 2019
Temperature: 29.0°C (84°F)
Dewpoint: 24.0°C (75°F) [RH = 74%]
Pressure (altimeter): 29.73 inches Hg (1007.0 mb)
Winds: from the W (270 degrees) at 9 MPH (8 knots; 4.1 m/s)
Visibility: 6 or more miles (10+ km)
Ceiling: at least 12,000 feet AGL
Clouds: sky clear below 12,000 feet AGL
Weather: no significant weather observed at this time

METAR text: NCRG 172130Z AUTO 22006KT 170V260 9999 FEW024/// BKN055/// 28/23 Q1007
Conditions at: NCRG (RAROTONGA COOK I, WS) observed 2130 UTC 17 February 2019
Temperature: 28.0°C (82°F)
Dewpoint: 23.0°C (73°F) [RH = 74%]
Pressure (altimeter): 29.73 inches Hg (1007.0 mb)
Winds: from the SW (220 degrees) at 7 MPH (6 knots; 3.1 m/s)
Visibility: 6 or more miles (10+ km)
Ceiling: 5500 feet AGL
Clouds: few clouds at 2400 feet AGL
broken clouds at 5500 feet AGL
Weather: no significant weather observed at this time

METAR text: NCRG 172100Z AUTO 23007KT 180V260 9999 FEW024/// BKN060/// 28/23 Q1008
Conditions at: NCRG (RAROTONGA COOK I, WS) observed 2100 UTC 17 February 2019
Temperature: 28.0°C (82°F)
Dewpoint: 23.0°C (73°F) [RH = 74%]
Pressure (altimeter): 29.76 inches Hg (1008.0 mb)
Winds: from the SW (230 degrees) at 8 MPH (7 knots; 3.6 m/s)
Visibility: 6 or more miles (10+ km)
Ceiling: 6000 feet AGL
Clouds: few clouds at 2400 feet AGL
broken clouds at 6000 feet AGL
Weather: no significant weather observed at this time

METAR text: NCRG 172030Z AUTO 23006KT 170V270 9999 NCD 29/23 Q1008
Conditions at: NCRG (RAROTONGA COOK I, WS) observed 2030 UTC 17 February 2019
Temperature: 29.0°C (84°F)
Dewpoint: 23.0°C (73°F) [RH = 70%]
Pressure (altimeter): 29.76 inches Hg (1008.0 mb)
Winds: from the SW (230 degrees) at 7 MPH (6 knots; 3.1 m/s)
Visibility: 6 or more miles (10+ km)
Ceiling: at least 12,000 feet AGL
Clouds: sky clear below 12,000 feet AGL
Weather: no significant weather observed at this time

METAR text: NCRG 172000Z AUTO 24006KT 190V260 9999 SCT023/// 28/23 Q1007
Conditions at: NCRG (RAROTONGA COOK I, WS) observed 2000 UTC 17 February 2019
Temperature: 28.0°C (82°F)
Dewpoint: 23.0°C (73°F) [RH = 74%]
Pressure (altimeter): 29.73 inches Hg (1007.0 mb)
Winds: from the WSW (240 degrees) at 7 MPH (6 knots; 3.1 m/s)
Visibility: 6 or more miles (10+ km)
Ceiling: at least 12,000 feet AGL
Clouds: scattered clouds at 2300 feet AGL
Weather: no significant weather observed at this time

METAR text: NCRG 171930Z AUTO 21004KT 160V260 9999 SCT022/// BKN050/// 28/23 Q1007
Conditions at: NCRG (RAROTONGA COOK I, WS) observed 1930 UTC 17 February 2019
Temperature: 28.0°C (82°F)
Dewpoint: 23.0°C (73°F) [RH = 74%]
Pressure (altimeter): 29.73 inches Hg (1007.0 mb)
Winds: from the SSW (210 degrees) at 5 MPH (4 knots; 2.1 m/s)
Visibility: 6 or more miles (10+ km)
Ceiling: 5000 feet AGL
Clouds: scattered clouds at 2200 feet AGL
broken clouds at 5000 feet AGL
Weather: no significant weather observed at this time

METAR text: NCRG 171900Z AUTO 20003KT 100V270 9999 SCT020/// BKN055/// 27/23 Q1007
Conditions at: NCRG (RAROTONGA COOK I, WS) observed 1900 UTC 17 February 2019
Temperature: 27.0°C (81°F)
Dewpoint: 23.0°C (73°F) [RH = 79%]
Pressure (altimeter): 29.73 inches Hg (1007.0 mb)
Winds: from the SSW (200 degrees) at 3 MPH (3 knots; 1.5 m/s)
Visibility: 6 or more miles (10+ km)
Ceiling: 5500 feet AGL
Clouds: scattered clouds at 2000 feet AGL
broken clouds at 5500 feet AGL
Weather: no significant weather observed at this time

METAR text: NCRG 171830Z AUTO 20001KT 9999 SCT055/// 26/24 Q1007
Conditions at: NCRG (RAROTONGA COOK I, WS) observed 1830 UTC 17 February 2019
Temperature: 26.0°C (79°F)
Dewpoint: 24.0°C (75°F) [RH = 89%]
Pressure (altimeter): 29.73 inches Hg (1007.0 mb)
Winds: from the SSW (200 degrees) at 1 MPH (1 knots; 0.5 m/s)
Visibility: 6 or more miles (10+ km)
Ceiling: at least 12,000 feet AGL
Clouds: scattered clouds at 5500 feet AGL
Weather: no significant weather observed at this time

Forecast for: NCRG (RAROTONGA COOK I, WS)
Text: TAF NCRG 190524Z 1906/2006 32007KT 9999 SCT018 BKN100
Forecast period: 0600 UTC 19 February 2019 to 0600 UTC 20 February 2019
Forecast type: FROM: standard forecast or significant change
Winds: from the NW (320 degrees) at 8 MPH (7 knots; 3.6 m/s)
Visibility: 6 or more miles 10+ km)
Ceiling: 10000 feet AGL
Clouds: scattered clouds at 1800 feet AGL
broken clouds at 10000 feet AGL
Weather: no significant weather forecast for this period
Text: PROB30
Forecast period: 0600 UTC 19 February 2019 to 0000 UTC 20 February 2019
Forecast type: TEMPORARY: The following changes expected for less than half the time period
Visibility: 3 miles (5 km)
Ceiling: 1500 feet AGL
Clouds: broken clouds at 1500 feet AGL
Weather: SHRA  (rain showers)
Text: TEMPO 1906/1924 5000 SHRA BKN015
Forecast period: 0000 to 0600 UTC 20 February 2019
Forecast type: TEMPORARY: The following changes expected for less than half the time period
Visibility: 1.86 miles (2.99 km)
Ceiling: 1500 feet AGL
Clouds: broken clouds at 1500 feet AGL
few clouds at 1800 feet AGL
Weather: TSRA  (rain associated with thunderstorm(s))